Time;durP1;ratioP1;P1;durP2;ratioP2;P2;SDS_P1;SDS_P2;PMS_P1;PMS_P2;Temp;Humidity;BMP_temperature;BMP_pressure;BME280_temperature;BME280_humidity;BME280_pressure;Samples;Min_cycle;Max_cycle;Signal;HPM_P1;HPM_P2
2023/01/06 00:02:16;;;;;;;;;;;;;;;15.78;53.13;100570.41;5098245;28;1002;-45
2023/01/06 00:04:41;;;;;;;;;;;;;;;16.20;52.31;100574.81;5097805;28;1385;-41
2023/01/06 00:07:07;;;;;;;;;;;;;;;17.41;48.86;100582.13;5098605;28;1115;-41
2023/01/06 00:09:33;;;;;;;;;;;;;;;16.40;51.46;100587.69;5098799;28;907;-41
2023/01/06 00:11:59;;;;;;;;;;;;;;;16.00;52.39;100592.91;5098432;28;1159;-43
2023/01/06 00:14:24;;;;;;;;;;;;;;;15.78;52.90;100595.06;5098018;28;1034;-39
2023/01/06 00:16:49;;;;;;;;;;;;;;;17.15;49.50;100588.84;5098976;28;1902;-41
2023/01/06 00:19:15;;;;;;;;;;;;;;;16.75;50.25;100600.50;5098092;28;1109;-41
2023/01/06 00:21:41;;;;;;;;;;;;;;;16.13;52.09;100612.66;5097868;28;847;-43
2023/01/06 00:24:07;;;;;;;;;;;;;;;15.95;52.49;100616.78;5098220;28;1069;-43
2023/01/06 00:26:32;;;;;;;;;;;;;;;15.73;52.80;100624.13;5097697;28;1117;-39
2023/01/06 00:28:58;;;;;;;;;;;;;;;16.82;50.63;100621.38;5098514;28;1158;-44
2023/01/06 00:31:24;;;;;;;;;;;;;;;16.89;49.77;100624.69;5097898;28;1086;-40
2023/01/06 00:33:50;;;;;;;;;;;;;;;16.20;51.85;100648.88;5097612;28;913;-41
2023/01/06 00:36:15;;;;;;;;;;;;;;;15.88;52.47;100648.03;5097570;28;1902;-42
2023/01/06 00:38:41;;;;;;;;;;;;;;;15.95;52.72;100657.91;5098449;28;1134;-43
2023/01/06 00:43:55;;;;;;;;;;;;;;;16.21;51.84;100680.72;5096814;28;1560;-41
2023/01/06 00:46:21;;;;;;;;;;;;;;;15.90;52.62;100683.41;5097487;28;929;-44
2023/01/06 00:48:47;;;;;;;;;;;;;;;15.91;52.59;100687.81;5096439;28;1104;-43
2023/01/06 00:51:12;;;;;;;;;;;;;;;17.49;48.58;100689.84;5098011;28;1190;-39
2023/01/06 00:53:37;;;;;;;;;;;;;;;16.51;50.91;100684.53;5097873;28;1030;-43
2023/01/06 00:56:03;;;;;;;;;;;;;;;16.05;52.34;100696.34;5096674;28;1901;-39
2023/01/06 00:58:29;;;;;;;;;;;;;;;15.84;52.53;100695.47;5095728;28;1584;-39
2023/01/06 01:00:55;;;;;;;;;;;;;;;15.67;52.85;100699.22;5097421;28;1062;-39
2023/01/06 01:03:20;;;;;;;;;;;;;;;17.13;49.68;100690.00;5097735;28;1173;-44
2023/01/06 01:05:46;;;;;;;;;;;;;;;16.51;50.88;100687.28;5095958;28;1640;-42
2023/01/06 01:08:11;;;;;;;;;;;;;;;16.02;52.38;100677.66;5097614;28;1113;-41
2023/01/06 01:10:37;;;;;;;;;;;;;;;15.83;52.61;100683.66;5096999;28;1120;-42
2023/01/06 01:13:02;;;;;;;;;;;;;;;16.65;51.01;100688.41;5097711;28;1137;-40
2023/01/06 01:15:28;;;;;;;;;;;;;;;17.35;48.87;100676.72;5097723;28;1089;-46
2023/01/06 01:17:53;;;;;;;;;;;;;;;16.33;51.39;100688.69;5095468;28;1988;-42
2023/01/06 01:20:19;;;;;;;;;;;;;;;15.97;52.16;100689.47;5097117;28;1225;-39
2023/01/06 01:22:44;;;;;;;;;;;;;;;15.77;52.91;100698.44;5097553;28;1137;-40
2023/01/06 01:25:09;;;;;;;;;;;;;;;16.63;50.91;100700.75;5097180;28;1059;-40
2023/01/06 01:27:35;;;;;;;;;;;;;;;16.90;49.88;100690.31;5096488;28;1070;-39
2023/01/06 01:30:00;;;;;;;;;;;;;;;16.17;51.77;100690.59;5095824;28;1528;-43
2023/01/06 01:32:26;;;;;;;;;;;;;;;15.86;52.59;100696.84;5096432;28;1113;-42
2023/01/06 01:34:51;;;;;;;;;;;;;;;15.69;52.88;100699.78;5097112;28;1078;-39
2023/01/06 01:37:17;;;;;;;;;;;;;;;16.55;51.30;100691.13;5096723;28;1984;-45
2023/01/06 01:39:42;;;;;;;;;;;;;;;17.03;49.70;100696.34;5096851;28;1218;-39
2023/01/06 01:42:12;;;;;;;;;;;;;;;16.19;51.56;100693.88;5096797;28;1086;-43
2023/01/06 01:44:51;;;;;;;;;;;;;;;15.89;52.56;100700.97;5093266;28;1031;-40
2023/01/06 01:47:40;;;;;;;;;;;;;;;15.69;52.97;100696.22;5087681;28;1070;-39
2023/01/06 01:50:08;;;;;;;;;;;;;;;17.22;49.13;100688.28;5091354;28;1259;-40
2023/01/06 01:52:34;;;;;;;;;;;;;;;16.62;50.47;100694.44;5095279;28;1276;-41
2023/01/06 01:54:59;;;;;;;;;;;;;;;16.05;51.98;100704.56;5095422;28;1222;-39
2023/01/06 01:57:45;;;;;;;;;;;;;;;15.83;52.82;100702.03;5096133;28;1901;-43
2023/01/06 02:00:11;;;;;;;;;;;;;;;16.31;51.90;100702.66;5095651;28;1196;-40
2023/01/06 02:02:39;;;;;;;;;;;;;;;17.21;49.16;100701.22;5078787;28;1318;-41
2023/01/06 02:05:05;;;;;;;;;;;;;;;16.24;51.32;100705.69;5095130;28;1318;-41
2023/01/06 02:07:30;;;;;;;;;;;;;;;15.90;52.27;100717.13;5065047;28;1191;-42
2023/01/06 02:10:16;;;;;;;;;;;;;;;15.73;52.80;100709.09;5094802;28;1205;-42
2023/01/06 02:12:42;;;;;;;;;;;;;;;17.07;49.47;100725.72;5083329;28;1129;-46
2023/01/06 02:15:21;;;;;;;;;;;;;;;16.80;49.95;100722.41;5095180;28;1119;-40
2023/01/06 02:18:06;;;;;;;;;;;;;;;16.11;51.84;100719.13;5095274;28;1910;-40
2023/01/06 02:20:34;;;;;;;;;;;;;;;15.85;52.53;100708.91;5096123;28;1039;-44
2023/01/06 02:23:04;;;;;;;;;;;;;;;16.81;50.17;100710.34;5094765;28;1109;-42
2023/01/06 02:25:42;;;;;;;;;;;;;;;16.88;49.59;100717.22;5096838;28;1248;-43
2023/01/06 02:28:26;;;;;;;;;;;;;;;16.16;51.58;100724.59;5096501;28;1039;-41
2023/01/06 02:31:10;;;;;;;;;;;;;;;15.87;52.38;100730.56;5095019;28;1299;-41
2023/01/06 02:33:40;;;;;;;;;;;;;;;15.66;52.71;100741.44;5094770;28;1224;-43
2023/01/06 02:36:18;;;;;;;;;;;;;;;16.88;50.08;100754.81;5078436;28;1914;-43
2023/01/06 02:38:48;;;;;;;;;;;;;;;16.74;50.22;100744.38;5094789;28;1000;-42
2023/01/06 02:41:26;;;;;;;;;;;;;;;16.06;51.78;100748.19;5094552;28;1140;-44
2023/01/06 02:43:59;;;;;;;;;;;;;;;15.83;52.59;100740.44;5094792;28;1153;-41
2023/01/06 02:46:28;;;;;;;;;;;;;;;16.90;49.92;100752.66;5095569;28;1093;-43
2023/01/06 02:48:56;;;;;;;;;;;;;;;17.02;49.51;100747.69;5094861;28;1125;-42
2023/01/06 02:51:34;;;;;;;;;;;;;;;16.17;51.72;100748.19;5095712;28;1010;-40
2023/01/06 02:54:00;;;;;;;;;;;;;;;15.90;52.17;100755.53;5094746;28;1062;-45
2023/01/06 02:56:26;;;;;;;;;;;;;;;15.72;52.69;100759.56;5096052;28;1913;-40
2023/01/06 02:58:57;;;;;;;;;;;;;;;16.91;49.87;100757.03;5094701;28;1152;-44
2023/01/06 03:01:27;;;;;;;;;;;;;;;16.76;49.95;100749.63;5081394;28;1127;-42
2023/01/06 03:03:53;;;;;;;;;;;;;;;16.09;51.92;100749.56;5094583;28;1252;-44
2023/01/06 03:06:23;;;;;;;;;;;;;;;15.85;52.32;100749.19;5094787;28;1348;-40
2023/01/06 03:08:49;;;;;;;;;;;;;;;15.67;52.98;100753.22;5094650;28;1156;-42
2023/01/06 03:11:16;;;;;;;;;;;;;;;16.89;49.89;100759.25;5077789;28;1225;-38
2023/01/06 03:13:43;;;;;;;;;;;;;;;16.93;49.72;100749.38;5094457;28;1183;-40
2023/01/06 03:16:10;;;;;;;;;;;;;;;16.16;51.49;100760.25;5094133;28;1898;-38
2023/01/06 03:18:36;;;;;;;;;;;;;;;15.87;52.29;100758.00;5096068;28;1137;-41
2023/01/06 03:21:05;;;;;;;;;;;;;;;16.02;52.13;100762.69;5078572;28;1234;-41
2023/01/06 03:23:31;;;;;;;;;;;;;;;17.22;49.06;100765.22;5097590;28;867;-39
2023/01/06 03:25:56;;;;;;;;;;;;;;;16.21;51.34;100769.31;5098786;28;1221;-44
2023/01/06 03:28:24;;;;;;;;;;;;;;;15.86;52.34;100768.13;5097937;28;1207;-39
2023/01/06 03:31:03;;;;;;;;;;;;;;;15.68;52.71;100765.84;5099193;28;1098;-42
2023/01/06 03:33:44;;;;;;;;;;;;;;;17.16;49.32;100763.63;5096704;28;1170;-44
2023/01/06 03:36:20;;;;;;;;;;;;;;;16.60;50.50;100781.72;5095142;28;1967;-44
2023/01/06 03:38:48;;;;;;;;;;;;;;;16.08;52.04;100769.84;5085694;28;1349;-42
2023/01/06 03:43:10;;;;;;;;;;;;;;;15.92;52.47;100771.72;5098658;28;1085;-44
2023/01/06 03:44:17;;;;;;;;;;;;;;;17.22;49.02;100770.72;5099381;28;1197;-41
2023/01/06 03:46:46;;;;;;;;;;;;;;;16.26;51.42;100774.00;5080797;28;1133;-40
2023/01/06 03:49:15;;;;;;;;;;;;;;;15.93;52.21;100772.56;5099422;28;1136;-41
2023/01/06 03:51:45;;;;;;;;;;;;;;;15.74;52.73;100781.22;5097562;28;1104;-45
2023/01/06 03:54:16;;;;;;;;;;;;;;;15.58;52.94;100783.06;5098954;28;1050;-41
2023/01/06 03:56:43;;;;;;;;;;;;;;;16.97;49.81;100783.44;5097904;28;1961;-40
2023/01/06 03:59:11;;;;;;;;;;;;;;;16.74;50.04;100788.31;5098803;28;1141;-44
2023/01/06 04:01:37;;;;;;;;;;;;;;;16.05;52.13;100784.13;5098657;28;1158;-40
2023/01/06 04:04:03;;;;;;;;;;;;;;;15.80;52.67;100784.84;5097560;28;1201;-44
2023/01/06 04:06:29;;;;;;;;;;;;;;;17.00;49.94;100788.34;5097143;28;1199;-42
2023/01/06 04:08:57;;;;;;;;;;;;;;;17.06;49.41;100803.72;5098501;28;1078;-39
2023/01/06 04:14:08;;;;;;;;;;;;;;;15.84;52.45;100813.38;5096105;28;1319;-41
2023/01/06 04:16:33;;;;;;;;;;;;;;;15.72;52.66;100817.13;5098727;28;1981;-43
2023/01/06 04:18:59;;;;;;;;;;;;;;;17.24;49.26;100818.00;5096973;28;1334;-41
2023/01/06 04:21:25;;;;;;;;;;;;;;;16.69;50.34;100824.03;5097125;28;1259;-46
2023/01/06 04:23:51;;;;;;;;;;;;;;;16.10;51.85;100824.44;5096462;28;1426;-42
2023/01/06 04:26:17;;;;;;;;;;;;;;;15.86;52.34;100822.16;5097182;28;1575;-45
2023/01/06 04:28:46;;;;;;;;;;;;;;;16.39;51.40;100819.31;5097136;28;1277;-41
2023/01/06 04:31:12;;;;;;;;;;;;;;;17.15;49.12;100814.16;5096668;28;1207;-43
2023/01/06 04:33:39;;;;;;;;;;;;;;;16.22;51.37;100803.09;5095468;28;1173;-46
2023/01/06 04:36:10;;;;;;;;;;;;;;;15.91;52.26;100801.06;5090405;28;1914;-46
2023/01/06 04:38:39;;;;;;;;;;;;;;;15.68;52.64;100807.81;5097106;28;1330;-46
2023/01/06 04:41:04;;;;;;;;;;;;;;;15.79;52.63;100838.84;5097757;28;1057;-48
2023/01/06 04:43:30;;;;;;;;;;;;;;;17.39;48.74;100837.22;5097679;28;1026;-47
2023/01/06 04:45:58;;;;;;;;;;;;;;;16.46;50.80;100839.09;5097082;28;1034;-48
2023/01/06 04:48:24;;;;;;;;;;;;;;;15.93;52.11;100846.59;5085131;28;1034;-47
2023/01/06 04:50:49;;;;;;;;;;;;;;;15.77;52.60;100851.13;5097703;28;1090;-45
2023/01/06 04:53:14;;;;;;;;;;;;;;;17.22;49.01;100861.41;5097575;28;1200;-44
2023/01/06 04:55:40;;;;;;;;;;;;;;;16.41;51.02;100872.84;5097817;28;1910;-47
2023/01/06 04:58:05;;;;;;;;;;;;;;;15.96;52.15;100871.56;5090286;28;1116;-47
2023/01/06 05:00:31;;;;;;;;;;;;;;;15.78;52.65;100875.56;5091092;28;1154;-53
2023/01/06 05:02:56;;;;;;;;;;;;;;;17.32;48.74;100866.91;5097392;28;1124;-54
2023/01/06 05:05:22;;;;;;;;;;;;;;;16.80;49.99;100873.47;5097426;28;1154;-50
2023/01/06 05:07:47;;;;;;;;;;;;;;;16.14;52.09;100878.50;5097013;28;1082;-50
2023/01/06 05:10:13;;;;;;;;;;;;;;;17.38;48.75;100876.78;5097523;28;1062;-51
2023/01/06 05:12:38;;;;;;;;;;;;;;;16.47;50.92;100881.91;5097590;28;1269;-47
2023/01/06 05:15:04;;;;;;;;;;;;;;;16.11;52.05;100878.22;5097101;28;1136;-49
2023/01/06 05:17:29;;;;;;;;;;;;;;;15.88;52.54;100886.63;5097059;28;1905;-47
2023/01/06 05:19:54;;;;;;;;;;;;;;;15.70;52.89;100887.03;5097392;28;1089;-43
2023/01/06 05:22:20;;;;;;;;;;;;;;;15.56;53.11;100886.66;5096511;28;1082;-44
2023/01/06 05:24:45;;;;;;;;;;;;;;;16.19;52.02;100888.69;5097564;28;1152;-49
2023/01/06 05:27:11;;;;;;;;;;;;;;;17.47;48.55;100885.31;5097209;28;1066;-46
2023/01/06 05:29:36;;;;;;;;;;;;;;;16.38;51.29;100889.84;5097216;28;1093;-47
2023/01/06 05:32:02;;;;;;;;;;;;;;;15.97;52.51;100883.38;5097384;28;1150;-45
2023/01/06 05:34:27;;;;;;;;;;;;;;;15.72;52.95;100877.47;5096671;28;1193;-46
2023/01/06 05:36:53;;;;;;;;;;;;;;;17.27;49.26;100895.22;5096326;28;1894;-48
2023/01/06 05:39:18;;;;;;;;;;;;;;;16.62;50.68;100891.28;5096665;28;1137;-48
2023/01/06 05:41:44;;;;;;;;;;;;;;;16.05;52.16;100897.38;5096448;28;1138;-45
2023/01/06 05:44:09;;;;;;;;;;;;;;;16.54;51.25;100901.69;5096751;28;1058;-44
2023/01/06 05:46:34;;;;;;;;;;;;;;;16.87;50.06;100905.06;5096067;28;1101;-46
2023/01/06 05:49:01;;;;;;;;;;;;;;;16.19;51.76;100889.50;5097072;28;1094;-45
2023/01/06 05:51:26;;;;;;;;;;;;;;;15.89;52.50;100895.66;5096911;28;1228;-44
2023/01/06 05:53:51;;;;;;;;;;;;;;;15.71;52.88;100902.38;5096916;28;1095;-47
2023/01/06 05:56:17;;;;;;;;;;;;;;;16.43;51.36;100911.81;5095879;28;1967;-44
2023/01/06 05:58:44;;;;;;;;;;;;;;;17.01;49.51;100915.53;5096293;28;1209;-43
2023/01/06 06:01:16;;;;;;;;;;;;;;;16.17;51.59;100912.81;5096412;28;1014;-44
2023/01/06 06:03:42;;;;;;;;;;;;;;;15.85;52.60;100916.47;5096539;28;1173;-44
2023/01/06 06:06:07;;;;;;;;;;;;;;;15.65;53.02;100920.69;5095698;28;1022;-45
2023/01/06 06:08:32;;;;;;;;;;;;;;;15.53;53.17;100912.69;5096689;28;1015;-47
2023/01/06 06:11:02;;;;;;;;;;;;;;;15.42;53.61;100924.66;5092314;28;1193;-46
2023/01/06 06:13:27;;;;;;;;;;;;;;;16.99;49.85;100921.31;5090132;28;1050;-43
2023/01/06 06:16:01;;;;;;;;;;;;;;;16.53;50.59;100937.66;5096281;28;1930;-49
2023/01/06 06:18:27;;;;;;;;;;;;;;;15.88;52.28;100935.97;5096046;28;1050;-42
2023/01/06 06:20:52;;;;;;;;;;;;;;;15.66;52.71;100929.75;5096219;28;1006;-45
2023/01/06 06:23:19;;;;;;;;;;;;;;;16.07;52.30;100927.28;5096393;28;1086;-46
2023/01/06 06:25:45;;;;;;;;;;;;;;;16.67;50.53;100925.06;5096699;28;1217;-45
2023/01/06 06:28:10;;;;;;;;;;;;;;;16.51;51.31;100926.09;5094099;28;1226;-49
2023/01/06 06:30:35;;;;;;;;;;;;;;;18.07;47.83;100934.97;5096496;28;1026;-48
2023/01/06 06:33:01;;;;;;;;;;;;;;;16.72;50.04;100932.50;5096372;28;1058;-44
2023/01/06 06:35:26;;;;;;;;;;;;;;;17.00;50.42;100935.84;5094460;28;1087;-46
2023/01/06 06:37:52;;;;;;;;;;;;;;;17.59;48.67;100931.78;5095737;28;1988;-44
2023/01/06 06:40:17;;;;;;;;;;;;;;;16.60;49.80;100950.00;5096311;28;1117;-46
2023/01/06 06:42:43;;;;;;;;;;;;;;;17.67;49.18;100964.22;5095425;28;1077;-47
2023/01/06 06:45:08;;;;;;;;;;;;;;;16.98;49.77;100974.59;5096226;28;1154;-45
2023/01/06 06:47:34;;;;;;;;;;;;;;;17.40;49.96;100964.47;5095633;28;1157;-47
2023/01/06 06:49:59;;;;;;;;;;;;;;;18.16;47.82;100968.28;5096129;28;1006;-48
2023/01/06 06:52:26;;;;;;;;;;;;;;;17.05;49.07;100958.66;5096330;28;1240;-47
2023/01/06 06:54:51;;;;;;;;;;;;;;;16.60;48.81;100957.44;5095585;28;1109;-42
2023/01/06 06:57:17;;;;;;;;;;;;;;;17.50;49.64;100969.16;5098049;28;1909;-48
2023/01/06 06:59:42;;;;;;;;;;;;;;;16.95;50.19;100969.66;5099349;28;1213;-46
2023/01/06 07:02:08;;;;;;;;;;;;;;;16.55;48.82;100963.75;5099828;28;1181;-44
2023/01/06 07:04:33;;;;;;;;;;;;;;;17.73;49.24;100984.28;5099313;28;1125;-47
2023/01/06 07:06:58;;;;;;;;;;;;;;;16.72;50.02;100988.22;5099388;28;1038;-44
2023/01/06 07:09:24;;;;;;;;;;;;;;;18.45;47.84;100997.91;5099438;28;1027;-45
2023/01/06 07:11:49;;;;;;;;;;;;;;;18.08;48.22;101001.88;5099381;28;1206;-43
2023/01/06 07:14:15;;;;;;;;;;;;;;;17.13;49.15;101012.28;5092620;28;1114;-44
2023/01/06 07:16:40;;;;;;;;;;;;;;;16.80;48.26;101030.81;5092645;28;1967;-45
2023/01/06 07:19:07;;;;;;;;;;;;;;;17.30;49.14;101036.75;5091984;28;1027;-44
2023/01/06 07:21:32;;;;;;;;;;;;;;;16.90;49.48;101032.78;5078946;28;1154;-43
2023/01/06 07:23:58;;;;;;;;;;;;;;;18.38;47.96;101022.97;5098779;28;1075;-40
2023/01/06 07:26:23;;;;;;;;;;;;;;;18.55;47.38;101038.34;5085669;28;1106;-44
2023/01/06 07:28:49;;;;;;;;;;;;;;;17.39;48.92;101031.53;5088216;28;1055;-44
2023/01/06 07:31:14;;;;;;;;;;;;;;;16.98;48.73;101035.03;5083280;28;1087;-41
2023/01/06 07:33:39;;;;;;;;;;;;;;;17.60;49.19;101035.16;5088762;28;1010;-41
2023/01/06 07:36:05;;;;;;;;;;;;;;;17.35;49.39;101028.53;5082118;28;1909;-41
2023/01/06 07:38:31;;;;;;;;;;;;;;;17.65;49.80;101020.59;5078444;28;1158;-41
2023/01/06 07:41:00;;;;;;;;;;;;;;;18.84;47.01;101034.94;5081747;28;1083;-45
2023/01/06 07:43:25;;;;;;;;;;;;;;;17.45;49.19;101028.53;5090809;28;1128;-42
2023/01/06 07:45:50;;;;;;;;;;;;;;;17.48;49.49;101034.59;5092292;28;1050;-45
2023/01/06 07:48:16;;;;;;;;;;;;;;;17.67;49.11;101034.88;5088801;28;1130;-47
2023/01/06 07:50:41;;;;;;;;;;;;;;;17.22;48.37;101026.28;5085095;28;1094;-47
2023/01/06 07:53:07;;;;;;;;;;;;;;;16.98;48.57;101036.97;5098298;28;1015;-46
2023/01/06 07:55:32;;;;;;;;;;;;;;;17.96;48.82;101024.16;5083718;28;1206;-45
2023/01/06 07:57:58;;;;;;;;;;;;;;;17.12;49.14;101018.03;5098019;28;1914;-43
2023/01/06 08:00:23;;;;;;;;;;;;;;;18.22;48.40;101019.44;5089725;28;1071;-46
2023/01/06 08:02:49;;;;;;;;;;;;;;;17.62;49.15;101021.94;5095897;28;1139;-43
2023/01/06 08:05:14;;;;;;;;;;;;;;;17.06;49.07;101020.78;5098110;28;1099;-46
2023/01/06 08:07:40;;;;;;;;;;;;;;;16.86;47.94;101031.69;5077773;28;1114;-41
2023/01/06 08:10:06;;;;;;;;;;;;;;;18.13;48.56;101038.47;5091147;28;1166;-45
2023/01/06 08:12:31;;;;;;;;;;;;;;;17.44;49.15;101046.13;5084626;28;1193;-46
2023/01/06 08:14:57;;;;;;;;;;;;;;;16.97;48.74;101044.38;5098297;28;1410;-47
2023/01/06 08:17:22;;;;;;;;;;;;;;;17.16;48.82;101035.63;5098076;28;1909;-44
2023/01/06 08:19:47;;;;;;;;;;;;;;;17.65;49.06;101054.41;5097471;28;1353;-45
2023/01/06 08:22:13;;;;;;;;;;;;;;;17.03;48.79;101054.28;5094789;28;1365;-39
2023/01/06 08:24:38;;;;;;;;;;;;;;;16.77;48.18;101065.16;5086605;28;877;-41
2023/01/06 08:27:04;;;;;;;;;;;;;;;18.18;48.11;101073.41;5098410;28;1099;-41
2023/01/06 08:29:29;;;;;;;;;;;;;;;17.16;49.27;101079.59;5097735;28;1101;-44
2023/01/06 08:31:55;;;;;;;;;;;;;;;16.91;48.29;101089.41;5097310;28;1050;-44
2023/01/06 08:34:20;;;;;;;;;;;;;;;17.69;49.21;101102.25;5098330;28;1011;-39
2023/01/06 08:36:46;;;;;;;;;;;;;;;17.30;49.16;101099.97;5096680;28;1964;-41
2023/01/06 08:39:11;;;;;;;;;;;;;;;16.86;48.56;101101.16;5097264;28;1185;-44
2023/01/06 08:41:37;;;;;;;;;;;;;;;18.33;47.90;101105.59;5097065;28;1157;-41
2023/01/06 08:44:02;;;;;;;;;;;;;;;17.10;49.44;101090.56;5097069;28;1022;-40
2023/01/06 08:46:28;;;;;;;;;;;;;;;16.95;48.16;101096.00;5097987;28;1089;-41
2023/01/06 08:48:54;;;;;;;;;;;;;;;17.59;49.11;101105.00;5096904;28;1121;-41
2023/01/06 08:51:20;;;;;;;;;;;;;;;16.85;49.25;101093.19;5102482;28;1288;-45
2023/01/06 08:53:46;;;;;;;;;;;;;;;17.75;48.88;101095.69;5093446;28;1299;-41
2023/01/06 08:56:15;;;;;;;;;;;;;;;17.35;48.99;101099.16;5077331;28;1972;-47
2023/01/06 08:58:41;;;;;;;;;;;;;;;17.87;48.87;101106.41;5102676;28;1185;-46
2023/01/06 09:01:06;;;;;;;;;;;;;;;18.68;46.96;101092.84;5091246;28;982;-42
2023/01/06 09:03:31;;;;;;;;;;;;;;;17.42;48.82;101088.75;5095908;28;1467;-44
2023/01/06 09:05:57;;;;;;;;;;;;;;;17.14;48.15;101092.78;5091704;28;1093;-39
2023/01/06 09:08:23;;;;;;;;;;;;;;;18.09;48.52;101095.16;5096257;28;1222;-45
2023/01/06 09:10:48;;;;;;;;;;;;;;;17.17;48.95;101095.81;5096226;28;1150;-44
2023/01/06 09:13:14;;;;;;;;;;;;;;;17.57;49.32;101091.53;5088912;28;1288;-41
2023/01/06 09:15:40;;;;;;;;;;;;;;;17.87;48.63;101067.88;5088708;28;1277;-40
2023/01/06 09:18:07;;;;;;;;;;;;;;;17.21;48.81;101071.38;5076214;28;1984;-44
2023/01/06 09:20:33;;;;;;;;;;;;;;;16.96;47.97;101069.34;5091697;28;1004;-41
2023/01/06 09:22:58;;;;;;;;;;;;;;;18.02;48.38;101078.09;5090477;28;1484;-42
2023/01/06 09:25:23;;;;;;;;;;;;;;;17.13;49.10;101082.91;5086390;28;1222;-41
2023/01/06 09:27:49;;;;;;;;;;;;;;;17.07;49.05;101084.81;5096624;28;1023;-43
2023/01/06 09:30:14;;;;;;;;;;;;;;;17.36;49.14;101074.16;5095860;28;1081;-40
2023/01/06 09:32:40;;;;;;;;;;;;;;;16.95;48.75;101076.78;5078493;28;1099;-44
2023/01/06 09:35:05;;;;;;;;;;;;;;;17.56;48.91;101078.06;5079279;28;1194;-41
2023/01/06 09:37:31;;;;;;;;;;;;;;;17.32;49.15;101084.06;5095396;28;1972;-46
2023/01/06 09:39:56;;;;;;;;;;;;;;;16.97;48.19;101082.84;5096052;28;1124;-41
2023/01/06 09:42:28;;;;;;;;;;;;;;;18.23;47.76;101078.06;5096670;28;1077;-44
2023/01/06 09:44:53;;;;;;;;;;;;;;;17.23;48.83;101081.00;5087178;28;1308;-43
2023/01/06 09:47:20;;;;;;;;;;;;;;;16.76;48.58;101079.16;5099309;28;905;-43
2023/01/06 09:49:46;;;;;;;;;;;;;;;17.87;48.21;101083.56;5096197;28;1225;-43
2023/01/06 09:52:21;;;;;;;;;;;;;;;17.06;48.88;101064.72;5096851;28;1216;-42
2023/01/06 09:55:00;;;;;;;;;;;;;;;17.84;48.70;101064.84;5082824;28;1063;-43
2023/01/06 09:57:33;;;;;;;;;;;;;;;17.29;49.10;101068.09;5092245;28;1906;-41
2023/01/06 10:00:03;;;;;;;;;;;;;;;16.99;48.25;101075.16;5087708;28;1261;-45
2023/01/06 10:02:38;;;;;;;;;;;;;;;17.42;48.93;101064.00;5098372;28;879;-43
2023/01/06 10:05:12;;;;;;;;;;;;;;;17.47;49.11;101063.19;5083440;28;998;-42
2023/01/06 10:07:41;;;;;;;;;;;;;;;19.19;45.83;101063.47;5080642;28;1155;-43
2023/01/06 10:10:06;;;;;;;;;;;;;;;17.64;48.54;101072.00;5082606;28;1125;-42
2023/01/06 10:13:10;;;;;;;;;;;;;;;17.31;47.99;101067.84;5081522;28;1038;-46
2023/01/06 10:15:44;;;;;;;;;;;;;;;17.94;48.53;101081.41;5033762;28;1068;-43
2023/01/06 10:18:28;;;;;;;;;;;;;;;17.15;48.92;101077.94;5033393;28;1979;-43
2023/01/06 10:20:57;;;;;;;;;;;;;;;18.43;47.67;101079.97;5065475;28;1269;-40
2023/01/06 10:23:23;;;;;;;;;;;;;;;17.99;48.34;101075.88;5090424;28;1495;-45
2023/01/06 10:25:49;;;;;;;;;;;;;;;17.36;48.48;101068.69;5084617;28;951;-38
2023/01/06 10:28:28;;;;;;;;;;;;;;;17.17;47.46;101071.09;5088996;28;1082;-38
2023/01/06 10:30:53;;;;;;;;;;;;;;;18.03;48.07;101074.22;5090333;28;1289;-43
2023/01/06 10:33:23;;;;;;;;;;;;;;;17.36;48.68;101082.41;5099477;28;1686;-41
2023/01/06 10:35:49;;;;;;;;;;;;;;;17.16;48.06;101074.09;5090818;28;1212;-44
2023/01/06 10:38:14;;;;;;;;;;;;;;;17.10;48.17;101087.81;5088567;28;1913;-42
2023/01/06 10:40:40;;;;;;;;;;;;;;;17.87;48.38;101078.06;5085154;28;1357;-40
2023/01/06 10:43:07;;;;;;;;;;;;;;;17.10;48.78;101081.50;5099793;28;1187;-39
2023/01/06 10:45:34;;;;;;;;;;;;;;;18.37;47.55;101090.19;5099648;28;1079;-45
2023/01/06 10:47:59;;;;;;;;;;;;;;;17.51;48.83;101087.09;5098582;28;1218;-39
2023/01/06 10:50:25;;;;;;;;;;;;;;;17.16;48.27;101091.41;5094767;28;1292;-41
2023/01/06 10:52:50;;;;;;;;;;;;;;;17.24;48.77;101088.16;5098575;28;1265;-42
2023/01/06 10:55:24;;;;;;;;;;;;;;;17.89;48.43;101106.13;5099294;28;1012;-42
2023/01/06 10:57:49;;;;;;;;;;;;;;;17.16;48.56;101096.91;5084877;28;1948;-37
2023/01/06 11:00:15;;;;;;;;;;;;;;;17.30;49.17;101091.72;5099073;28;1049;-43
2023/01/06 11:02:41;;;;;;;;;;;;;;;17.64;48.70;101091.25;5082923;28;1196;-40
2023/01/06 11:05:11;;;;;;;;;;;;;;;17.12;48.65;101084.81;5096434;28;931;-44
2023/01/06 11:07:36;;;;;;;;;;;;;;;17.32;48.90;101100.53;5094679;28;924;-39
2023/01/06 11:10:10;;;;;;;;;;;;;;;17.45;48.84;101089.03;5078197;28;888;-45
2023/01/06 11:12:35;;;;;;;;;;;;;;;17.26;49.17;101096.13;5093097;28;1035;-42
2023/01/06 11:15:01;;;;;;;;;;;;;;;18.73;46.55;101089.25;5090769;28;889;-43
2023/01/06 11:17:27;;;;;;;;;;;;;;;17.51;48.35;101089.03;5093854;28;1913;-43
2023/01/06 11:20:11;;;;;;;;;;;;;;;17.20;48.02;101086.22;5097426;28;1015;-43
2023/01/06 11:22:37;;;;;;;;;;;;;;;16.88;47.68;101084.41;5098901;28;1230;-41
2023/01/06 11:25:03;;;;;;;;;;;;;;;17.44;48.40;101092.84;5095801;28;1347;-40
2023/01/06 11:27:28;;;;;;;;;;;;;;;17.15;48.91;101094.44;5103451;28;1087;-42
2023/01/06 11:29:54;;;;;;;;;;;;;;;17.21;48.73;101088.69;5085737;28;1106;-39
2023/01/06 11:32:19;;;;;;;;;;;;;;;18.39;47.50;101090.72;5097633;28;965;-45
2023/01/06 11:34:54;;;;;;;;;;;;;;;17.24;48.99;101101.88;5080956;28;1042;-38
2023/01/06 11:37:33;;;;;;;;;;;;;;;16.99;48.34;101101.81;5091603;28;1909;-40
2023/01/06 11:39:59;;;;;;;;;;;;;;;17.48;48.65;101103.34;5111485;28;1022;-44
2023/01/06 11:42:25;;;;;;;;;;;;;;;17.00;48.53;101096.03;5097044;28;1263;-42
2023/01/06 11:44:50;;;;;;;;;;;;;;;17.79;48.56;101105.03;5098712;28;927;-38
2023/01/06 11:47:17;;;;;;;;;;;;;;;17.26;48.92;101107.09;5098088;28;1030;-44
2023/01/06 11:49:46;;;;;;;;;;;;;;;16.88;48.45;101107.22;5098610;28;1070;-40
2023/01/06 11:52:19;;;;;;;;;;;;;;;17.84;48.39;101106.13;5097748;28;1063;-39
2023/01/06 11:54:44;;;;;;;;;;;;;;;17.10;48.47;101109.81;5091035;28;1110;-46
2023/01/06 11:57:10;;;;;;;;;;;;;;;18.57;47.16;101121.53;5092241;28;1901;-42
2023/01/06 11:59:41;;;;;;;;;;;;;;;17.84;48.29;101122.63;5090845;28;1122;-39
2023/01/06 12:02:06;;;;;;;;;;;;;;;17.22;48.27;101119.72;5095465;28;1070;-43
2023/01/06 12:04:36;;;;;;;;;;;;;;;18.42;47.36;101114.94;5100866;28;1023;-41
2023/01/06 12:07:03;;;;;;;;;;;;;;;17.34;48.91;101125.00;5085913;28;1170;-39
2023/01/06 12:09:30;;;;;;;;;;;;;;;17.08;48.06;101128.50;5079805;28;1039;-45
2023/01/06 12:11:56;;;;;;;;;;;;;;;17.89;48.41;101128.13;5091604;28;981;-43
2023/01/06 12:14:22;;;;;;;;;;;;;;;17.37;48.76;101114.28;5097500;28;1046;-45
2023/01/06 12:17:07;;;;;;;;;;;;;;;17.04;48.28;101127.38;5095321;28;1901;-39
2023/01/06 12:19:38;;;;;;;;;;;;;;;16.93;48.27;101128.44;5086831;28;1106;-37
2023/01/06 12:22:03;;;;;;;;;;;;;;;17.60;48.40;101131.41;5087185;28;1171;-36
2023/01/06 12:24:31;;;;;;;;;;;;;;;17.18;48.12;101126.88;5076682;28;1151;-42
2023/01/06 12:26:56;;;;;;;;;;;;;;;18.88;46.64;101130.56;5076830;28;868;-37
2023/01/06 12:29:21;;;;;;;;;;;;;;;17.70;48.54;101139.66;5089715;28;1055;-42
2023/01/06 12:31:47;;;;;;;;;;;;;;;17.24;48.28;101139.53;5086972;28;1130;-38
2023/01/06 12:34:16;;;;;;;;;;;;;;;18.04;48.35;101143.88;5081485;28;1118;-37
2023/01/06 12:37:03;;;;;;;;;;;;;;;17.28;48.76;101135.97;5090116;28;1973;-41
2023/01/06 12:39:29;;;;;;;;;;;;;;;16.99;47.93;101141.09;5092333;28;943;-40
2023/01/06 12:42:14;;;;;;;;;;;;;;;17.83;48.46;101140.25;5095978;28;1102;-45
2023/01/06 12:44:44;;;;;;;;;;;;;;;17.06;48.47;101149.91;5084628;28;1269;-44
2023/01/06 12:47:12;;;;;;;;;;;;;;;18.80;46.67;101151.22;5076603;28;827;-44
2023/01/06 12:49:37;;;;;;;;;;;;;;;17.65;48.51;101147.91;5080690;28;1141;-43
2023/01/06 12:52:04;;;;;;;;;;;;;;;17.17;48.41;101144.47;5084778;28;1346;-43
2023/01/06 12:54:30;;;;;;;;;;;;;;;18.21;48.16;101151.84;5091732;28;1476;-42
2023/01/06 12:57:07;;;;;;;;;;;;;;;17.35;48.76;101160.47;5095928;28;1980;-42